Terminal Aerodrome Forecast
Issued by NWS

Home | Current Version | Previous Version | Text Only | Print | Product List | Glossary On
Versions: 1 2 3 4 5 6 7 8 9 10 11 12 13 14 15 16 17 18 19 20 21 22 23 24 25 26 27
000
FTUS45 KGJT 031120
TAFEGE
TAF
KEGE 031120Z 0312/0412 04004KT P6SM BKN110
     FM031900 25007KT P6SM FEW100 SCT200
     FM032100 21006KT P6SM VCTS SCT050CB BKN120
     FM040300 09005KT P6SM SCT080 BKN150
     FM040900 VRB03KT P6SM BKN150
      AMD LTD TO CLD VIS AND WIND TIL 031300=

USA.gov is the U.S. government's official web portal to all federal, state and local government web resources and services.